Time;durP1;ratioP1;P1;durP2;ratioP2;P2;SDS_P1;SDS_P2;PMS_P1;PMS_P2;Temp;Humidity;BMP_temperature;BMP_pressure;BME280_temperature;BME280_humidity;BME280_pressure;Samples;Min_cycle;Max_cycle;Signal;HPM_P1;HPM_P2
2021/01/09 00:01:26;;;;;;;13.85;8.40;;;;;;;-0.17;93.59;101703.81;6247803;28;20560;-76
2021/01/09 00:04:27;;;;;;;16.60;7.93;;;;;;;-0.20;92.86;101706.34;6247895;28;20054;-76
2021/01/09 00:07:30;;;;;;;13.88;7.32;;;;;;;-0.18;92.64;101712.38;6247785;28;20406;-77
2021/01/09 00:10:32;;;;;;;15.18;8.55;;;;;;;-0.34;94.10;101712.28;6247333;28;20046;-78
2021/01/09 00:13:33;;;;;;;17.25;8.77;;;;;;;-0.42;95.56;101720.81;6247611;28;20049;-77
2021/01/09 00:16:34;;;;;;;15.25;8.70;;;;;;;-0.38;94.88;101723.44;6247743;28;20072;-78
2021/01/09 00:19:35;;;;;;;13.55;8.15;;;;;;;-0.11;93.60;101732.25;6247340;28;20041;-77
2021/01/09 00:22:36;;;;;;;13.77;8.15;;;;;;;-0.20;93.57;101729.59;6247486;28;20049;-77
2021/01/09 00:25:37;;;;;;;16.15;8.65;;;;;;;-0.15;93.74;101727.91;6247694;28;20081;-76
2021/01/09 00:28:39;;;;;;;18.25;9.30;;;;;;;-0.34;92.17;101727.78;6246566;28;20662;-76
2021/01/09 00:31:40;;;;;;;15.38;8.63;;;;;;;-0.28;91.81;101732.13;6247563;28;20049;-77
2021/01/09 00:34:40;;;;;;;14.90;8.88;;;;;;;-0.43;93.07;101735.47;6247638;28;20426;-76
2021/01/09 00:37:41;;;;;;;15.07;9.18;;;;;;;-0.25;94.16;101737.31;6247195;28;20071;-76
2021/01/09 00:40:42;;;;;;;14.60;9.32;;;;;;;-0.20;93.43;101742.50;6246651;28;20045;-76
2021/01/09 00:43:44;;;;;;;17.05;9.88;;;;;;;-0.24;91.64;101748.50;6247277;28;20072;-76
2021/01/09 00:46:45;;;;;;;15.85;9.68;;;;;;;-0.34;92.46;101739.84;6246846;28;20049;-77
2021/01/09 00:49:46;;;;;;;19.48;10.23;;;;;;;-0.40;94.05;101745.81;6246806;28;20050;-76
2021/01/09 00:52:46;;;;;;;17.40;10.38;;;;;;;-0.37;93.83;101752.72;6246715;28;20045;-76
2021/01/09 00:55:48;;;;;;;17.77;10.43;;;;;;;-0.31;94.65;101753.63;6247155;28;20077;-77
2021/01/09 00:58:49;;;;;;;17.50;11.02;;;;;;;-0.28;94.27;101761.38;6246154;28;20052;-78
2021/01/09 01:01:51;;;;;;;17.83;10.90;;;;;;;-0.02;92.57;101759.00;6246865;28;20403;-76
2021/01/09 01:04:52;;;;;;;18.15;11.50;;;;;;;-0.23;92.30;101757.97;6247023;28;20056;-77
2021/01/09 01:07:52;;;;;;;20.77;12.63;;;;;;;-0.20;93.93;101761.47;6246577;28;20050;-77
2021/01/09 01:10:54;;;;;;;21.63;12.23;;;;;;;-0.11;92.40;101755.50;6246339;28;20053;-77
2021/01/09 01:13:57;;;;;;;19.00;11.25;;;;;;;-0.05;92.73;101756.38;6246366;28;20150;-76
2021/01/09 01:16:58;;;;;;;24.00;14.15;;;;;;;-0.17;92.41;101761.50;6246438;28;20053;-76
2021/01/09 01:19:59;;;;;;;24.88;12.98;;;;;;;-0.19;93.53;101768.34;6245383;28;20445;-76
2021/01/09 01:23:00;;;;;;;23.17;13.68;;;;;;;-0.20;94.13;101768.34;6246733;28;20053;-76
2021/01/09 01:26:01;;;;;;;23.17;13.65;;;;;;;-0.25;94.63;101765.72;6246259;28;20057;-78
2021/01/09 01:29:03;;;;;;;24.42;12.00;;;;;;;-0.20;93.66;101771.78;6246206;28;20084;-75
2021/01/09 01:32:05;;;;;;;23.88;13.27;;;;;;;-0.18;94.29;101767.50;6246388;28;20049;-77
2021/01/09 01:35:07;;;;;;;21.92;12.13;;;;;;;-0.14;93.34;101769.25;6246399;28;20042;-77
2021/01/09 01:38:07;;;;;;;22.83;12.57;;;;;;;-0.07;94.34;101771.03;6246260;28;20049;-78
2021/01/09 01:41:10;;;;;;;23.70;12.68;;;;;;;-0.12;94.32;101770.13;6244777;28;20119;-77
2021/01/09 01:44:11;;;;;;;21.55;13.10;;;;;;;-0.27;94.27;101776.06;6246402;28;20053;-75
2021/01/09 01:47:17;;;;;;;23.88;13.05;;;;;;;-0.17;94.69;101765.78;6245756;28;20406;-77
2021/01/09 01:50:18;;;;;;;26.02;13.93;;;;;;;-0.03;93.70;101766.75;6245275;28;20171;-77
2021/01/09 01:53:19;;;;;;;23.63;13.68;;;;;;;-0.17;94.07;101770.97;6246118;28;20103;-77
2021/01/09 01:56:20;;;;;;;26.23;14.40;;;;;;;-0.09;93.52;101767.59;6245711;28;20077;-77
2021/01/09 01:59:21;;;;;;;24.92;14.48;;;;;;;-0.21;93.99;101764.91;6245544;28;20128;-76
2021/01/09 02:02:22;;;;;;;26.92;15.38;;;;;;;0.06;94.14;101771.97;6246307;28;20045;-77
2021/01/09 02:05:24;;;;;;;24.98;14.63;;;;;;;-0.02;92.75;101764.16;6246099;28;20535;-77
2021/01/09 02:08:29;;;;;;;29.50;15.82;;;;;;;0.05;93.89;101767.66;6245682;28;20391;-77
2021/01/09 02:11:40;;;;;;;30.35;16.20;;;;;;;-0.13;94.17;101765.81;6245618;28;20072;-80
2021/01/09 02:14:44;;;;;;;26.17;14.63;;;;;;;-0.21;94.47;101772.66;6246340;28;20095;-77
2021/01/09 02:17:45;;;;;;;28.90;16.20;;;;;;;-0.10;95.04;101765.81;6245244;28;20460;-78
2021/01/09 02:20:49;;;;;;;26.05;14.73;;;;;;;0.25;92.19;101768.63;6245268;28;20045;-77
2021/01/09 02:23:51;;;;;;;31.42;17.00;;;;;;;-0.01;92.63;101762.44;6245737;28;20056;-78
2021/01/09 02:26:52;;;;;;;27.13;15.05;;;;;;;0.17;92.71;101769.44;6245547;28;20058;-78
2021/01/09 02:29:58;;;;;;;26.00;14.70;;;;;;;-0.07;93.28;101765.84;6244861;28;20045;-77
2021/01/09 02:33:03;;;;;;;29.05;15.75;;;;;;;-0.17;93.52;101765.78;6245754;28;20045;-78
2021/01/09 02:36:05;;;;;;;31.20;16.58;;;;;;;-0.19;93.42;101764.91;6245720;28;20053;-77
2021/01/09 02:39:08;;;;;;;34.40;17.27;;;;;;;-0.35;95.15;101771.69;6244862;28;20050;-79
2021/01/09 02:42:09;;;;;;;29.48;16.38;;;;;;;-0.29;94.49;101780.31;6245928;28;20057;-79
2021/01/09 02:45:11;;;;;;;35.05;15.82;;;;;;;-0.19;94.44;101778.69;6245766;28;20049;-80
2021/01/09 02:48:11;;;;;;;29.85;16.45;;;;;;;-0.34;94.44;101786.31;6244998;28;20469;-79
2021/01/09 02:51:12;;;;;;;31.08;16.08;;;;;;;-0.39;95.17;101785.41;6265355;23;20061;-71
2021/01/09 02:54:14;;;;;;;31.95;16.77;;;;;;;-0.34;95.55;101789.75;6249953;28;20053;-71
2021/01/09 02:57:15;;;;;;;33.63;18.25;;;;;;;-0.28;95.78;101804.44;6249521;28;20548;-71
2021/01/09 03:00:18;;;;;;;32.70;17.15;;;;;;;-0.10;94.85;101806.31;6228263;28;20046;-71
2021/01/09 03:03:18;;;;;;;37.38;18.85;;;;;;;-0.11;94.86;101810.59;6225112;28;20042;-71
2021/01/09 03:06:20;;;;;;;32.83;16.80;;;;;;;-0.24;96.11;101810.50;6224703;28;20049;-71
2021/01/09 03:09:21;;;;;;;33.58;17.50;;;;;;;-0.32;96.12;101819.06;6247968;28;20102;-71
2021/01/09 03:12:22;;;;;;;29.30;16.17;;;;;;;-0.34;96.17;101812.13;6249391;28;20046;-70
2021/01/09 03:15:23;;;;;;;30.63;16.20;;;;;;;-0.33;95.78;101808.69;6249328;28;20076;-72
2021/01/09 03:18:24;;;;;;;26.33;14.85;;;;;;;-0.50;96.77;101808.53;6249399;28;20139;-72
2021/01/09 03:21:25;;;;;;;27.83;14.50;;;;;;;-0.37;96.36;101815.53;6248981;28;20045;-72
2021/01/09 03:24:26;;;;;;;26.05;14.23;;;;;;;-0.28;96.34;101810.47;6249403;28;20057;-72
2021/01/09 03:27:27;;;;;;;27.27;13.30;;;;;;;-0.16;95.53;101812.28;6249073;28;20568;-72
2021/01/09 03:30:28;;;;;;;23.52;13.13;;;;;;;-0.13;95.63;101812.31;6248686;28;20042;-72
2021/01/09 03:33:29;;;;;;;22.40;12.60;;;;;;;-0.28;95.65;101817.34;6249285;28;20045;-72
2021/01/09 03:36:30;;;;;;;21.67;12.95;;;;;;;-0.27;96.32;101819.97;6248757;28;20057;-72
2021/01/09 03:39:32;;;;;;;25.77;12.15;;;;;;;-0.11;96.05;101823.53;6248393;28;20092;-72
2021/01/09 03:42:33;;;;;;;21.38;11.73;;;;;;;-0.26;96.78;101826.00;6248695;28;20434;-72
2021/01/09 03:45:33;;;;;;;21.15;12.15;;;;;;;-0.32;96.75;101825.91;6248474;28;20081;-72
2021/01/09 03:48:34;;;;;;;20.10;11.70;;;;;;;-0.21;96.87;101828.63;6248465;28;20056;-72
2021/01/09 03:51:35;;;;;;;20.15;11.23;;;;;;;-0.24;96.96;101826.84;6248231;28;20095;-72
2021/01/09 03:54:37;;;;;;;17.00;9.68;;;;;;;-0.08;96.77;101843.38;6248454;28;20051;-72
2021/01/09 03:57:38;;;;;;;17.45;9.90;;;;;;;-0.15;95.76;101833.81;6248221;28;20050;-72
2021/01/09 04:00:38;;;;;;;14.73;9.05;;;;;;;-0.10;96.28;101832.13;6248128;28;20046;-72
2021/01/09 04:03:39;;;;;;;15.38;9.00;;;;;;;-0.13;95.95;101842.47;6247599;28;20453;-72
2021/01/09 04:06:40;;;;;;;15.15;8.68;;;;;;;-0.01;95.21;101838.22;6247869;28;20061;-72
2021/01/09 04:09:42;;;;;;;17.00;9.30;;;;;;;-0.03;95.67;101834.78;6247920;28;20045;-72
2021/01/09 04:12:43;;;;;;;15.07;8.93;;;;;;;0.02;96.45;101841.72;6247654;28;20057;-72
2021/01/09 04:15:43;;;;;;;15.20;8.30;;;;;;;-0.06;95.92;101839.91;6248148;28;20422;-72
2021/01/09 04:18:44;;;;;;;15.18;8.60;;;;;;;0.08;95.13;101846.91;6247180;28;20056;-72
2021/01/09 04:21:46;;;;;;;16.58;8.68;;;;;;;-0.02;96.17;101844.25;6247863;28;20041;-72
2021/01/09 04:24:48;;;;;;;15.18;8.70;;;;;;;0.06;95.67;101853.81;6247800;28;20096;-72
2021/01/09 04:27:49;;;;;;;15.80;9.88;;;;;;;-0.10;96.11;101850.22;6247183;28;20180;-72
2021/01/09 04:30:50;;;;;;;14.85;8.20;;;;;;;-0.15;97.22;101855.34;6247214;28;20049;-72
2021/01/09 04:33:50;;;;;;;15.60;8.77;;;;;;;0.03;96.42;101864.09;6247583;28;20060;-72
2021/01/09 04:36:52;;;;;;;16.45;8.57;;;;;;;-0.04;96.88;101856.31;6244959;28;20049;-72
2021/01/09 04:39:54;;;;;;;18.33;9.30;;;;;;;-0.05;97.49;101853.69;6246691;28;20137;-72
2021/01/09 04:42:55;;;;;;;14.82;9.05;;;;;;;-0.06;97.20;101862.31;6247543;28;20497;-71
2021/01/09 04:45:56;;;;;;;15.13;9.23;;;;;;;-0.10;96.42;101861.41;6246891;28;20075;-71
2021/01/09 04:48:57;;;;;;;13.77;8.68;;;;;;;0.12;96.43;101861.59;6246793;28;20053;-72
2021/01/09 04:51:59;;;;;;;15.20;9.05;;;;;;;0.05;96.61;101858.13;6247350;28;20064;-71
2021/01/09 04:55:01;;;;;;;14.50;8.40;;;;;;;-0.07;96.41;101863.16;6247258;28;20053;-72
2021/01/09 04:58:03;;;;;;;20.55;10.20;;;;;;;-0.21;97.27;101868.22;6246751;28;20486;-72
2021/01/09 05:01:04;;;;;;;16.75;9.55;;;;;;;-0.15;97.98;101862.22;6246353;28;20049;-72
2021/01/09 05:04:06;;;;;;;19.63;9.95;;;;;;;-0.14;98.16;101862.25;6247228;28;20060;-72
2021/01/09 05:07:06;;;;;;;18.55;10.05;;;;;;;-0.18;98.84;101859.63;6246504;28;20058;-72
2021/01/09 05:10:09;;;;;;;18.33;9.85;;;;;;;-0.07;97.78;101869.19;6246655;28;20061;-72
2021/01/09 05:13:10;;;;;;;16.70;9.68;;;;;;;-0.08;97.42;101872.66;6246509;28;20056;-72
2021/01/09 05:16:11;;;;;;;16.02;9.95;;;;;;;0.13;97.44;101871.94;6246612;28;20231;-72
2021/01/09 05:19:12;;;;;;;15.23;9.02;;;;;;;0.01;97.16;101879.63;6246097;28;20060;-72
2021/01/09 05:22:13;;;;;;;15.27;9.80;;;;;;;0.02;97.86;101876.16;6246812;28;20128;-72
2021/01/09 05:25:16;;;;;;;17.02;10.10;;;;;;;0.07;96.77;101878.78;6246572;28;20505;-72
2021/01/09 05:28:18;;;;;;;15.88;8.95;;;;;;;-0.01;97.57;101878.72;6246272;28;20443;-72
2021/01/09 05:31:20;;;;;;;15.90;9.90;;;;;;;0.18;96.71;101888.38;6246069;28;20056;-72
2021/01/09 05:34:21;;;;;;;14.73;9.77;;;;;;;0.20;96.56;101889.22;6246503;28;20080;-72
2021/01/09 05:37:24;;;;;;;17.38;9.95;;;;;;;0.08;96.64;101891.72;6246189;28;20053;-72
2021/01/09 05:40:26;;;;;;;14.27;9.48;;;;;;;0.17;95.89;101891.78;6245471;28;20406;-73
2021/01/09 05:43:26;;;;;;;21.20;10.10;;;;;;;-0.01;96.65;101891.63;6246261;28;20528;-72
2021/01/09 05:46:29;;;;;;;20.48;10.35;;;;;;;0.00;97.88;101890.81;6246139;28;20045;-72
2021/01/09 05:49:30;;;;;;;21.63;10.82;;;;;;;-0.09;98.54;101888.09;6245882;28;20049;-72
2021/01/09 05:52:36;;;;;;;19.77;9.80;;;;;;;0.08;98.41;101893.44;6246250;28;20068;-72
2021/01/09 05:55:41;;;;;;;18.00;10.60;;;;;;;-0.03;98.00;101888.19;6246420;28;20722;-72
2021/01/09 05:58:42;;;;;;;18.40;10.52;;;;;;;-0.10;98.47;101889.84;6245519;28;20053;-72
2021/01/09 06:01:48;;;;;;;18.33;11.45;;;;;;;-0.01;98.37;101894.22;6246204;28;20060;-72
2021/01/09 06:04:51;;;;;;;19.17;11.07;;;;;;;-0.06;98.69;101895.91;6246181;28;20050;-72
2021/01/09 06:07:52;;;;;;;19.48;11.32;;;;;;;-0.02;99.02;101902.81;6245945;28;20057;-73
2021/01/09 06:10:59;;;;;;;17.27;10.88;;;;;;;-0.06;98.46;101898.47;6245420;28;20049;-72
2021/01/09 06:14:01;;;;;;;20.80;11.55;;;;;;;0.04;97.96;101909.75;6245915;28;20049;-73
2021/01/09 06:17:03;;;;;;;21.30;10.60;;;;;;;-0.02;98.57;101916.59;6245685;28;20076;-73
2021/01/09 06:20:05;;;;;;;19.92;11.07;;;;;;;0.03;98.49;101910.63;6245327;28;20046;-73
2021/01/09 06:23:06;;;;;;;18.15;10.15;;;;;;;0.09;98.39;101916.72;6246060;28;20053;-73
2021/01/09 06:26:10;;;;;;;22.98;10.93;;;;;;;-0.01;98.69;101920.91;6245504;28;20477;-73
2021/01/09 06:29:19;;;;;;;18.52;10.65;;;;;;;0.36;97.46;101918.63;6250073;28;20564;-73
2021/01/09 06:32:20;;;;;;;17.73;9.45;;;;;;;0.34;96.24;101922.09;6250526;28;20502;-72
2021/01/09 06:35:22;;;;;;;15.23;9.10;;;;;;;0.28;96.31;101924.63;6250611;28;20050;-72
2021/01/09 06:38:23;;;;;;;18.60;10.50;;;;;;;0.01;97.09;101917.50;6249878;28;20057;-72
2021/01/09 06:41:26;;;;;;;20.10;10.02;;;;;;;0.23;97.60;101924.59;6249639;28;20048;-72
2021/01/09 06:44:27;;;;;;;20.45;11.00;;;;;;;0.07;97.71;101927.88;6250207;28;20057;-72
2021/01/09 06:47:29;;;;;;;18.48;10.93;;;;;;;0.02;99.08;101929.56;6239070;28;20046;-72
2021/01/09 06:50:33;;;;;;;22.73;10.85;;;;;;;0.05;98.62;101929.59;6225043;28;20049;-72
2021/01/09 06:53:34;;;;;;;22.02;10.90;;;;;;;0.00;99.44;101939.91;6225490;28;20060;-73
2021/01/09 06:56:35;;;;;;;19.98;10.90;;;;;;;0.18;98.11;101944.34;6225028;28;20046;-72
2021/01/09 06:59:37;;;;;;;18.67;10.68;;;;;;;0.06;99.05;101939.09;6224722;28;20104;-72
2021/01/09 07:02:38;;;;;;;20.48;10.52;;;;;;;0.15;99.25;101941.75;6225429;28;20092;-72
2021/01/09 07:05:43;;;;;;;18.40;10.20;;;;;;;0.18;98.56;101946.91;6225085;28;20058;-72
2021/01/09 07:08:46;;;;;;;20.38;11.15;;;;;;;0.11;98.63;101947.75;6224631;28;20049;-72
2021/01/09 07:11:48;;;;;;;18.15;10.00;;;;;;;0.04;99.80;101949.38;6245025;28;20053;-72
2021/01/09 07:14:52;;;;;;;17.13;9.93;;;;;;;0.11;99.57;101952.91;6243856;28;20095;-72
2021/01/09 07:17:56;;;;;;;21.23;10.18;;;;;;;0.10;99.28;101952.03;6249268;28;20045;-74
2021/01/09 07:20:59;;;;;;;16.25;9.82;;;;;;;0.02;100.00;101958.84;6247698;28;20072;-74
2021/01/09 07:24:01;;;;;;;19.08;9.90;;;;;;;0.11;99.84;101961.53;6249373;28;20053;-74
2021/01/09 07:27:03;;;;;;;19.58;10.98;;;;;;;0.15;99.18;101959.84;6248829;28;20461;-72
2021/01/09 07:30:11;;;;;;;18.65;10.38;;;;;;;0.21;99.37;101965.91;6248533;28;20045;-74
2021/01/09 07:33:13;;;;;;;17.25;8.80;;;;;;;0.31;98.91;101972.03;6249128;28;20053;-72
2021/01/09 07:36:17;;;;;;;16.13;9.35;;;;;;;0.40;98.59;101972.09;6248791;28;20494;-72
2021/01/09 07:39:23;;;;;;;21.05;9.60;;;;;;;0.40;98.84;101984.16;6228265;28;20544;-72
2021/01/09 07:42:25;;;;;;;16.60;8.35;;;;;;;0.40;98.07;101969.53;6248957;28;20053;-72
2021/01/09 07:45:31;;;;;;;16.30;9.40;;;;;;;0.27;98.24;101975.44;6248906;28;20473;-72
2021/01/09 07:48:32;;;;;;;20.42;9.60;;;;;;;0.16;99.38;101974.50;6248598;28;20107;-73
2021/01/09 07:51:48;;;;;;;17.48;9.60;;;;;;;0.16;99.88;101987.41;6248093;28;20050;-73
2021/01/09 07:54:51;;;;;;;17.88;9.18;;;;;;;0.41;99.51;101973.88;6248754;28;20497;-73
2021/01/09 07:57:52;;;;;;;22.20;9.57;;;;;;;0.16;99.22;101975.34;6248341;28;20062;-73
2021/01/09 08:00:56;;;;;;;18.33;10.05;;;;;;;0.17;98.63;101982.25;6248071;28;20048;-72
2021/01/09 08:03:57;;;;;;;19.52;9.75;;;;;;;0.18;99.58;101980.53;6248380;28;20053;-73
2021/01/09 08:06:58;;;;;;;17.75;9.68;;;;;;;0.16;99.13;101995.16;6248031;28;20053;-72
2021/01/09 08:09:59;;;;;;;18.70;10.57;;;;;;;0.10;100.00;102002.88;6247226;28;20051;-72
2021/01/09 08:13:04;;;;;;;19.42;9.95;;;;;;;0.11;99.94;102005.47;6248338;28;20049;-72
2021/01/09 08:16:05;;;;;;;21.55;9.43;;;;;;;0.23;100.00;102010.75;6248002;28;20104;-72
2021/01/09 08:19:16;;;;;;;20.55;9.40;;;;;;;0.16;99.98;102010.69;6247301;28;20053;-73
2021/01/09 08:22:17;;;;;;;15.25;9.18;;;;;;;0.26;100.00;102015.06;6247981;28;20050;-73
2021/01/09 08:25:18;;;;;;;16.05;8.82;;;;;;;0.43;98.33;102029.03;6247738;28;20060;-73
2021/01/09 08:28:22;;;;;;;18.23;9.63;;;;;;;0.35;98.46;102022.91;6247618;28;20052;-72
2021/01/09 08:31:24;;;;;;;18.40;8.93;;;;;;;0.52;97.21;102024.78;6247167;28;20041;-73
2021/01/09 08:34:26;;;;;;;17.05;9.18;;;;;;;0.59;97.14;102031.75;6247780;28;20049;-72
2021/01/09 08:37:29;;;;;;;14.80;8.88;;;;;;;0.43;98.13;102034.19;6247236;28;20057;-72
2021/01/09 08:40:31;;;;;;;20.58;8.98;;;;;;;0.38;98.19;102037.59;6246843;28;20049;-72
2021/01/09 08:43:32;;;;;;;18.48;9.77;;;;;;;0.44;98.48;102035.94;6247385;28;20054;-73
2021/01/09 08:46:34;;;;;;;15.35;9.02;;;;;;;0.48;98.49;102042.00;6247369;28;20056;-73
2021/01/09 08:49:35;;;;;;;19.25;9.05;;;;;;;0.45;98.47;102048.00;6246371;28;20498;-72
2021/01/09 08:52:36;;;;;;;17.05;9.07;;;;;;;0.74;96.19;102044.81;6267825;22;20147;-80
2021/01/09 08:55:39;;;;;;;14.35;8.60;;;;;;;0.85;96.13;102040.56;6246856;28;20046;-80
2021/01/09 08:58:41;;;;;;;24.50;8.63;;;;;;;0.66;96.17;102049.91;6240238;28;20135;-81
2021/01/09 09:01:45;;;;;;;13.93;7.43;;;;;;;0.70;95.45;102049.09;6239554;28;20053;-81
2021/01/09 09:04:47;;;;;;;16.50;8.07;;;;;;;0.63;96.61;102044.72;6222320;28;20056;-82
2021/01/09 09:07:52;;;;;;;12.98;7.68;;;;;;;0.68;96.85;102057.69;6222622;28;20054;-81
2021/01/09 09:10:55;;;;;;;18.17;8.90;;;;;;;0.55;97.13;102064.50;6243037;28;20050;-81
2021/01/09 09:14:07;;;;;;;15.35;8.82;;;;;;;0.62;96.17;102061.09;6246753;28;20049;-81
2021/01/09 09:17:08;;;;;;;14.18;8.32;;;;;;;0.59;96.31;102070.53;6246430;28;20057;-81
2021/01/09 09:20:15;;;;;;;16.00;7.70;;;;;;;0.69;95.40;102069.78;6246369;28;20049;-80
2021/01/09 09:23:21;;;;;;;16.65;8.93;;;;;;;0.75;95.96;102072.41;6246759;28;20049;-81
2021/01/09 09:26:31;;;;;;;14.07;7.72;;;;;;;0.75;95.27;102078.44;6241301;28;20053;-80
2021/01/09 09:29:32;;;;;;;;;;;;;;;0.62;96.78;102079.19;6244809;28;20512;-79
2021/01/09 09:32:34;;;;;;;18.63;8.68;;;;;;;0.67;96.52;102077.50;6246684;28;19928;-80
2021/01/09 09:35:35;;;;;;;19.13;8.45;;;;;;;0.80;95.88;102075.03;6246231;28;20111;-80
2021/01/09 09:38:36;;;;;;;14.20;7.72;;;;;;;0.82;95.55;102073.31;6243551;28;20045;-80
2021/01/09 09:41:50;;;;;;;13.82;7.82;;;;;;;0.75;95.71;102070.69;6246259;28;20529;-80
2021/01/09 09:44:52;;;;;;;15.82;8.30;;;;;;;0.84;96.87;102075.06;6246988;28;20050;-80
2021/01/09 09:47:53;;;;;;;13.55;7.63;;;;;;;0.86;95.80;102075.06;6245941;28;20045;-79
2021/01/09 09:51:01;;;;;;;16.35;8.25;;;;;;;0.77;96.07;102070.69;6245844;28;20049;-79
2021/01/09 09:54:03;;;;;;;23.83;9.73;;;;;;;1.09;95.02;102068.38;6246128;28;20077;-78
2021/01/09 09:57:04;;;;;;;22.92;10.55;;;;;;;1.08;95.37;102071.81;6246012;28;20046;-83
2021/01/09 10:00:07;;;;;;;16.63;7.97;;;;;;;0.87;95.62;102071.66;6245957;28;20042;-84
2021/01/09 10:03:08;;;;;;;15.35;7.85;;;;;;;0.87;95.04;102074.25;6249152;28;20099;-84
2021/01/09 10:06:09;;;;;;;16.20;7.65;;;;;;;1.00;96.28;102066.59;6251047;28;20057;-84
2021/01/09 10:09:12;;;;;;;13.80;7.15;;;;;;;1.05;95.36;102068.34;6250622;28;20045;-83
2021/01/09 10:12:13;;;;;;;13.63;6.97;;;;;;;1.11;94.46;102073.56;6251201;28;20065;-83
2021/01/09 10:15:15;;;;;;;18.08;6.63;;;;;;;1.13;93.63;102069.25;6251419;28;20530;-82
2021/01/09 10:18:16;;;;;;;11.68;6.82;;;;;;;1.33;92.01;102078.03;6250392;28;20049;-81
2021/01/09 10:21:17;;;;;;;14.48;7.00;;;;;;;1.07;93.36;102079.56;6250479;28;20103;-81
2021/01/09 10:24:17;;;;;;;13.57;6.45;;;;;;;0.99;93.11;102080.38;6250403;28;20053;-83
2021/01/09 10:27:18;;;;;;;13.90;6.97;;;;;;;0.96;94.28;102085.53;6249273;28;20045;-81
2021/01/09 10:30:21;;;;;;;13.50;6.40;;;;;;;1.29;93.25;102084.03;6250052;28;20049;-82
2021/01/09 10:33:21;;;;;;;10.90;6.65;;;;;;;1.35;91.97;102080.63;6250594;28;20049;-82
2021/01/09 10:36:23;;;;;;;11.27;6.43;;;;;;;1.23;91.30;102076.25;6248632;28;20048;-85
2021/01/09 10:39:24;;;;;;;11.00;6.65;;;;;;;1.26;92.11;102073.66;6249542;28;20395;-82
2021/01/09 10:42:28;;;;;;;13.35;6.80;;;;;;;1.23;91.50;102069.34;6248691;28;20068;-81
2021/01/09 10:45:29;;;;;;;14.85;7.22;;;;;;;1.12;91.74;102068.38;6244996;28;20088;-84
2021/01/09 10:48:30;;;;;;;13.30;7.13;;;;;;;1.24;91.75;102072.78;6249119;28;20056;-79
2021/01/09 10:51:31;;;;;;;16.45;7.97;;;;;;;1.12;91.82;102073.56;6249671;28;20049;-84
2021/01/09 10:54:32;;;;;;;13.35;6.60;;;;;;;1.08;92.05;102064.03;6249977;28;20060;-83
2021/01/09 10:57:33;;;;;;;15.65;8.30;;;;;;;1.28;92.05;102066.78;6249745;28;20053;-83
2021/01/09 11:00:34;;;;;;;15.80;8.18;;;;;;;1.11;92.80;102066.66;6242848;28;20439;-81
2021/01/09 11:03:36;;;;;;;16.55;9.07;;;;;;;1.35;92.13;102067.66;6225306;28;20057;-80
2021/01/09 11:06:37;;;;;;;15.60;8.82;;;;;;;1.16;92.81;102069.28;6224897;28;20046;-80
2021/01/09 11:09:37;;;;;;;18.25;9.43;;;;;;;1.35;91.90;102065.94;6243826;28;20152;-81
2021/01/09 11:12:38;;;;;;;17.42;9.48;;;;;;;1.37;90.81;102068.56;6249105;28;20045;-83
2021/01/09 11:15:44;;;;;;;21.73;8.93;;;;;;;1.35;91.16;102068.53;6249551;28;20057;-83
2021/01/09 11:18:44;;;;;;;18.45;9.15;;;;;;;1.21;91.90;102068.44;6233356;28;20308;-79
2021/01/09 11:21:45;;;;;;;21.35;8.70;;;;;;;1.44;91.31;102062.53;6224981;28;20057;-81
2021/01/09 11:24:46;;;;;;;17.60;10.25;;;;;;;1.44;88.76;102066.00;6237496;28;20045;-82
2021/01/09 11:27:47;;;;;;;19.02;11.38;;;;;;;1.20;90.10;102071.03;6249008;28;20422;-82
2021/01/09 11:30:48;;;;;;;19.58;11.63;;;;;;;1.39;88.96;102069.41;6242133;28;20045;-82
2021/01/09 11:33:50;;;;;;;20.77;12.25;;;;;;;1.21;89.78;102065.84;6244555;28;20076;-81
2021/01/09 11:36:51;;;;;;;19.15;11.75;;;;;;;1.36;89.91;102066.78;6224348;28;20061;-81
2021/01/09 11:39:54;;;;;;;23.35;12.15;;;;;;;1.33;89.26;102066.81;6247255;28;20414;-82
2021/01/09 11:42:55;;;;;;;21.23;13.10;;;;;;;1.24;89.37;102072.78;6248701;28;20094;-82
2021/01/09 11:45:57;;;;;;;19.90;11.85;;;;;;;1.45;86.28;102070.34;6248767;28;20422;-82
2021/01/09 11:48:57;;;;;;;16.73;10.73;;;;;;;1.44;85.78;102070.31;6248308;28;20049;-82
2021/01/09 11:52:01;;;;;;;17.33;10.10;;;;;;;1.32;84.56;102071.13;6248579;28;20049;-82
2021/01/09 11:55:02;;;;;;;19.15;10.38;;;;;;;1.10;86.11;102061.47;6248615;28;20053;-82
2021/01/09 11:58:03;;;;;;;19.58;10.50;;;;;;;1.30;85.00;102066.78;6248447;28;20053;-82
2021/01/09 12:01:04;;;;;;;16.70;10.23;;;;;;;1.37;86.17;102065.97;6248072;28;20473;-82
2021/01/09 12:04:05;;;;;;;16.02;9.52;;;;;;;1.64;85.28;102066.09;6247068;28;20103;-82
2021/01/09 12:07:06;;;;;;;18.25;10.32;;;;;;;1.66;84.69;102060.94;6247829;28;20057;-83
2021/01/09 12:10:08;;;;;;;17.52;10.93;;;;;;;1.53;85.67;102060.00;6248188;28;20053;-82
2021/01/09 12:13:09;;;;;;;21.13;11.63;;;;;;;1.61;86.12;102065.22;6248329;28;20072;-82
2021/01/09 12:16:11;;;;;;;19.98;9.65;;;;;;;1.57;83.14;102058.28;6246853;28;20076;-82
2021/01/09 12:19:12;;;;;;;15.55;10.02;;;;;;;1.70;83.76;102060.94;6246667;28;20107;-82
2021/01/09 12:22:12;;;;;;;13.35;8.15;;;;;;;1.90;81.49;102054.97;6247321;28;20049;-81
2021/01/09 12:25:13;;;;;;;14.48;8.23;;;;;;;1.91;81.63;102059.31;6238584;28;20054;-77
2021/01/09 12:28:14;;;;;;;14.13;8.40;;;;;;;2.07;80.54;102063.66;6247362;28;20061;-78
2021/01/09 12:31:16;;;;;;;12.05;7.88;;;;;;;2.09;80.61;102054.19;6247477;28;20052;-77
2021/01/09 12:34:17;;;;;;;12.52;7.95;;;;;;;1.95;81.18;102056.72;6247812;28;20045;-77
2021/01/09 12:37:18;;;;;;;13.63;7.35;;;;;;;2.01;82.17;102058.47;6241559;28;20100;-77
2021/01/09 12:40:19;;;;;;;14.63;7.93;;;;;;;2.01;81.27;102053.28;6222793;28;20458;-78
2021/01/09 12:43:20;;;;;;;11.52;7.32;;;;;;;1.99;81.61;102067.97;6222731;28;20049;-77
2021/01/09 12:46:22;;;;;;;9.98;6.20;;;;;;;2.04;80.86;102063.66;6222763;28;20138;-77
2021/01/09 12:49:23;;;;;;;20.58;7.25;;;;;;;1.82;80.89;102069.63;6222533;28;20046;-77
2021/01/09 12:52:23;;;;;;;10.05;6.68;;;;;;;1.74;80.83;102060.09;6222789;28;20499;-78
2021/01/09 12:55:24;;;;;;;12.80;6.35;;;;;;;1.66;81.54;102063.50;6222858;28;20073;-77
2021/01/09 12:58:25;;;;;;;14.80;6.68;;;;;;;1.67;82.59;102075.59;6222398;28;20462;-78
2021/01/09 13:01:30;;;;;;;10.93;6.05;;;;;;;1.76;82.04;102073.91;6222110;28;20100;-77
2021/01/09 13:07:21;;;;;;;15.02;7.38;;;;;;;1.78;82.63;102063.56;6367882;27;20180;-74
2021/01/09 13:10:22;;;;;;;14.32;7.13;;;;;;;1.69;84.98;102066.13;6362675;27;20097;-76
2021/01/09 13:13:23;;;;;;;10.98;7.32;;;;;;;1.97;83.56;102060.19;6363685;28;20047;-76
2021/01/09 13:16:24;;;;;;;15.05;6.40;;;;;;;1.94;83.10;102059.31;6365299;27;20084;-76
2021/01/09 13:19:25;;;;;;;11.07;7.13;;;;;;;1.98;82.42;102061.91;6363622;27;20507;-78
2021/01/09 13:22:27;;;;;;;14.02;7.68;;;;;;;1.87;84.05;102063.63;6359708;27;20040;-77
2021/01/09 13:25:28;;;;;;;12.32;7.97;;;;;;;1.83;85.00;102067.06;6364371;28;20526;-79
2021/01/09 13:28:29;;;;;;;13.00;7.40;;;;;;;1.81;84.77;102063.56;6365638;28;20063;-79
2021/01/09 13:31:31;;;;;;;20.38;7.55;;;;;;;1.78;85.71;102068.75;6367832;27;20047;-80
2021/01/09 13:34:32;;;;;;;9.95;6.70;;;;;;;1.71;86.44;102067.00;6360508;27;20040;-79
2021/01/09 13:37:33;;;;;;;11.70;7.32;;;;;;;1.68;85.64;102065.28;6351032;27;20420;-79
2021/01/09 13:40:34;;;;;;;8.45;5.68;;;;;;;1.79;87.26;102062.72;6342179;28;20565;-78
2021/01/09 13:43:35;;;;;;;6.07;4.03;;;;;;;2.13;79.35;102070.59;6342236;28;20055;-78
2021/01/09 13:46:36;;;;;;;7.45;4.35;;;;;;;1.87;80.22;102068.78;6342273;28;20047;-79
2021/01/09 13:49:40;;;;;;;16.42;5.22;;;;;;;1.69;81.27;102066.13;6341828;28;20047;-79
2021/01/09 13:52:42;;;;;;;9.38;4.82;;;;;;;1.63;81.50;102076.44;6342420;28;20044;-79
2021/01/09 13:55:43;;;;;;;10.30;5.47;;;;;;;1.51;83.90;102077.28;6341832;28;20056;-79
2021/01/09 13:58:46;;;;;;;47.33;17.17;;;;;;;1.52;83.91;102077.25;6341660;28;20511;-79
2021/01/09 14:01:48;;;;;;;12.95;5.88;;;;;;;1.62;82.85;102073.00;6341903;28;20052;-80